sensor_id;sensor_type;location;lat;lon;timestamp;pressure;altitude;pressure_sealevel;temperature;humidity
70434;BME280;57876;47.792;12.960;2023-03-26T00:01:36;96376.84;;;15.89;46.50
70434;BME280;57876;47.792;12.960;2023-03-26T00:04:01;96375.69;;;15.90;46.10
70434;BME280;57876;47.792;12.960;2023-03-26T00:06:31;96376.84;;;15.89;46.56
70434;BME280;57876;47.792;12.960;2023-03-26T00:09:00;96387.75;;;15.89;46.41
70434;BME280;57876;47.792;12.960;2023-03-26T00:11:27;96372.06;;;15.86;46.48
70434;BME280;57876;47.792;12.960;2023-03-26T00:13:51;96370.59;;;15.89;46.12
70434;BME280;57876;47.792;12.960;2023-03-26T00:16:20;96367.88;;;15.89;46.34
70434;BME280;57876;47.792;12.960;2023-03-26T00:18:44;96354.53;;;15.87;46.37
70434;BME280;57876;47.792;12.960;2023-03-26T00:21:15;96363.88;;;15.86;46.36
70434;BME280;57876;47.792;12.960;2023-03-26T00:23:40;96351.81;;;15.87;46.46
70434;BME280;57876;47.792;12.960;2023-03-26T00:26:06;96362.72;;;15.87;46.20
70434;BME280;57876;47.792;12.960;2023-03-26T00:28:33;96355.69;;;15.86;46.06
70434;BME280;57876;47.792;12.960;2023-03-26T00:31:00;96366.59;;;15.86;46.10
70434;BME280;57876;47.792;12.960;2023-03-26T00:33:25;96345.91;;;15.85;46.44
70434;BME280;57876;47.792;12.960;2023-03-26T00:35:54;96342.06;;;15.86;46.18
70434;BME280;57876;47.792;12.960;2023-03-26T00:38:20;96338.53;;;15.85;46.54
70434;BME280;57876;47.792;12.960;2023-03-26T00:40:45;96348.66;;;15.85;46.54
70434;BME280;57876;47.792;12.960;2023-03-26T00:43:11;96351.69;;;15.83;46.39
70434;BME280;57876;47.792;12.960;2023-03-26T00:45:42;96334.19;;;15.84;46.39
70434;BME280;57876;47.792;12.960;2023-03-26T00:48:06;96340.78;;;15.83;46.57
70434;BME280;57876;47.792;12.960;2023-03-26T00:50:30;96340.78;;;15.83;46.42
70434;BME280;57876;47.792;12.960;2023-03-26T00:52:55;96326.34;;;15.83;46.42
70434;BME280;57876;47.792;12.960;2023-03-26T00:55:19;96340.78;;;15.83;46.24
70434;BME280;57876;47.792;12.960;2023-03-26T00:57:43;96323.63;;;15.83;46.55
70434;BME280;57876;47.792;12.960;2023-03-26T01:00:11;96329.06;;;15.83;46.50
70434;BME280;57876;47.792;12.960;2023-03-26T01:02:38;96333.75;;;15.82;46.57
70434;BME280;57876;47.792;12.960;2023-03-26T01:05:37;96319.28;;;15.82;46.25
70434;BME280;57876;47.792;12.960;2023-03-26T01:08:21;96320.44;;;15.81;46.41
70434;BME280;57876;47.792;12.960;2023-03-26T01:10:48;96322.00;;;15.82;46.31
70434;BME280;57876;47.792;12.960;2023-03-26T01:13:21;96317.22;;;15.79;46.43
70434;BME280;57876;47.792;12.960;2023-03-26T01:15:46;96318.84;;;15.80;46.37
70434;BME280;57876;47.792;12.960;2023-03-26T01:18:14;96312.25;;;15.81;46.23
70434;BME280;57876;47.792;12.960;2023-03-26T01:20:39;96314.19;;;15.80;46.33
70434;BME280;57876;47.792;12.960;2023-03-26T01:23:09;96306.78;;;15.81;46.41
70434;BME280;57876;47.792;12.960;2023-03-26T01:25:39;96302.00;;;15.78;46.39
70434;BME280;57876;47.792;12.960;2023-03-26T01:28:05;96306.00;;;15.80;46.57
70434;BME280;57876;47.792;12.960;2023-03-26T01:30:38;96316.75;;;15.77;46.01
70434;BME280;57876;47.792;12.960;2023-03-26T01:36:00;96302.31;;;15.76;46.52
70434;BME280;57876;47.792;12.960;2023-03-26T01:38:32;96319.16;;;15.78;46.06
70434;BME280;57876;47.792;12.960;2023-03-26T01:41:10;96318.38;;;15.78;46.32
70434;BME280;57876;47.792;12.960;2023-03-26T01:43:46;96312.91;;;15.78;46.53
70434;BME280;57876;47.792;12.960;2023-03-26T01:46:13;96325.28;;;15.75;46.21
70434;BME280;57876;47.792;12.960;2023-03-26T01:48:41;96324.94;;;15.77;46.13
70434;BME280;57876;47.792;12.960;2023-03-26T01:51:08;96323.81;;;15.78;46.37
70434;BME280;57876;47.792;12.960;2023-03-26T01:53:35;96325.75;;;15.77;46.00
70434;BME280;57876;47.792;12.960;2023-03-26T01:58:40;96323.34;;;15.76;46.16
70434;BME280;57876;47.792;12.960;2023-03-26T02:01:35;96324.13;;;15.76;46.49
70434;BME280;57876;47.792;12.960;2023-03-26T02:04:18;96333.09;;;15.77;46.10
70434;BME280;57876;47.792;12.960;2023-03-26T02:06:49;96336.50;;;15.74;46.07
70434;BME280;57876;47.792;12.960;2023-03-26T02:09:19;96336.97;;;15.76;46.34
70434;BME280;57876;47.792;12.960;2023-03-26T02:11:45;96332.66;;;15.75;46.39
70434;BME280;57876;47.792;12.960;2023-03-26T02:14:12;96328.31;;;15.74;46.40
70434;BME280;57876;47.792;12.960;2023-03-26T02:16:37;96327.22;;;15.75;46.25
70434;BME280;57876;47.792;12.960;2023-03-26T02:19:03;96337.75;;;15.76;46.28
70434;BME280;57876;47.792;12.960;2023-03-26T02:21:27;96321.75;;;15.75;46.41
70434;BME280;57876;47.792;12.960;2023-03-26T02:23:54;96322.06;;;15.73;46.28
70434;BME280;57876;47.792;12.960;2023-03-26T02:26:25;96327.22;;;15.75;46.41
70434;BME280;57876;47.792;12.960;2023-03-26T02:28:50;96327.22;;;15.75;46.06
70434;BME280;57876;47.792;12.960;2023-03-26T02:31:14;96327.22;;;15.75;46.31
70434;BME280;57876;47.792;12.960;2023-03-26T02:33:40;96328.31;;;15.74;46.33
70434;BME280;57876;47.792;12.960;2023-03-26T02:36:05;96320.94;;;15.74;46.17
70434;BME280;57876;47.792;12.960;2023-03-26T02:38:31;96318.19;;;15.74;46.30
70434;BME280;57876;47.792;12.960;2023-03-26T02:40:58;96315.03;;;15.72;46.14
70434;BME280;57876;47.792;12.960;2023-03-26T02:43:22;96316.97;;;15.72;46.25
70434;BME280;57876;47.792;12.960;2023-03-26T02:45:47;96319.34;;;15.73;46.22
70434;BME280;57876;47.792;12.960;2023-03-26T02:48:12;96320.47;;;15.72;46.36
70434;BME280;57876;47.792;12.960;2023-03-26T02:50:38;96316.97;;;15.72;46.12
70434;BME280;57876;47.792;12.960;2023-03-26T02:53:02;96312.31;;;15.72;46.37
70434;BME280;57876;47.792;12.960;2023-03-26T02:55:26;96313.09;;;15.73;46.37
70434;BME280;57876;47.792;12.960;2023-03-26T02:57:51;96306.84;;;15.72;46.07
70434;BME280;57876;47.792;12.960;2023-03-26T03:00:15;96305.22;;;15.71;46.15
70434;BME280;57876;47.792;12.960;2023-03-26T03:02:40;96314.25;;;15.72;46.05
70434;BME280;57876;47.792;12.960;2023-03-26T03:05:07;96316.13;;;15.71;46.59
70434;BME280;57876;47.792;12.960;2023-03-26T03:07:31;96311.50;;;15.72;46.12
70434;BME280;57876;47.792;12.960;2023-03-26T03:09:56;96305.59;;;15.70;46.19
70434;BME280;57876;47.792;12.960;2023-03-26T03:12:26;96308.78;;;15.72;46.32
70434;BME280;57876;47.792;12.960;2023-03-26T03:14:51;96306.06;;;15.72;46.23
70434;BME280;57876;47.792;12.960;2023-03-26T03:17:15;96299.00;;;15.71;46.35
70434;BME280;57876;47.792;12.960;2023-03-26T03:19:39;96295.47;;;15.70;46.27
70434;BME280;57876;47.792;12.960;2023-03-26T03:22:04;96300.13;;;15.70;46.50
70434;BME280;57876;47.792;12.960;2023-03-26T03:24:28;96299.00;;;15.71;46.30
70434;BME280;57876;47.792;12.960;2023-03-26T03:26:53;96299.00;;;15.71;46.14
70434;BME280;57876;47.792;12.960;2023-03-26T03:29:19;96297.41;;;15.70;46.52
70434;BME280;57876;47.792;12.960;2023-03-26T03:31:44;96282.97;;;15.69;46.46
70434;BME280;57876;47.792;12.960;2023-03-26T03:34:08;96282.63;;;15.71;46.24
70434;BME280;57876;47.792;12.960;2023-03-26T03:36:33;96285.72;;;15.69;46.59
70434;BME280;57876;47.792;12.960;2023-03-26T03:39:01;96273.97;;;15.69;46.40
70434;BME280;57876;47.792;12.960;2023-03-26T03:41:25;96281.03;;;15.70;46.59
70434;BME280;57876;47.792;12.960;2023-03-26T03:43:50;96281.03;;;15.70;46.00
70434;BME280;57876;47.792;12.960;2023-03-26T03:46:14;96284.88;;;15.69;46.13
70434;BME280;57876;47.792;12.960;2023-03-26T03:48:39;96291.16;;;15.69;46.34
70434;BME280;57876;47.792;12.960;2023-03-26T03:51:04;96271.25;;;15.69;46.15
70434;BME280;57876;47.792;12.960;2023-03-26T03:53:29;96266.91;;;15.68;46.53
70434;BME280;57876;47.792;12.960;2023-03-26T03:55:55;96271.25;;;15.69;46.61
70434;BME280;57876;47.792;12.960;2023-03-26T03:58:21;96262.25;;;15.68;46.32
70434;BME280;57876;47.792;12.960;2023-03-26T04:00:46;96254.06;;;15.68;46.21
70434;BME280;57876;47.792;12.960;2023-03-26T04:03:11;96250.56;;;15.68;46.37
70434;BME280;57876;47.792;12.960;2023-03-26T04:05:37;96245.09;;;15.68;46.20
70434;BME280;57876;47.792;12.960;2023-03-26T04:08:01;96239.66;;;15.68;46.54
70434;BME280;57876;47.792;12.960;2023-03-26T04:10:26;96239.66;;;15.68;46.51
70434;BME280;57876;47.792;12.960;2023-03-26T04:12:50;96235.34;;;15.67;46.13
70434;BME280;57876;47.792;12.960;2023-03-26T04:15:15;96242.69;;;15.66;46.18
70434;BME280;57876;47.792;12.960;2023-03-26T04:17:39;96239.66;;;15.68;46.14
70434;BME280;57876;47.792;12.960;2023-03-26T04:20:06;96229.06;;;15.66;46.38
70434;BME280;57876;47.792;12.960;2023-03-26T04:22:31;96235.34;;;15.67;46.29
70434;BME280;57876;47.792;12.960;2023-03-26T04:24:57;96226.34;;;15.66;46.11
70434;BME280;57876;47.792;12.960;2023-03-26T04:27:24;96232.94;;;15.65;46.28
70434;BME280;57876;47.792;12.960;2023-03-26T04:29:51;96228.75;;;15.68;46.33
70434;BME280;57876;47.792;12.960;2023-03-26T04:32:24;96223.16;;;15.64;46.12
70434;BME280;57876;47.792;12.960;2023-03-26T04:34:53;96223.97;;;15.64;46.09
70434;BME280;57876;47.792;12.960;2023-03-26T04:37:26;96222.34;;;15.63;46.27
70434;BME280;57876;47.792;12.960;2023-03-26T04:39:52;96215.78;;;15.64;46.15
70434;BME280;57876;47.792;12.960;2023-03-26T04:42:17;96227.47;;;15.65;46.52
70434;BME280;57876;47.792;12.960;2023-03-26T04:44:43;96217.72;;;15.64;46.47
70434;BME280;57876;47.792;12.960;2023-03-26T04:47:07;96218.50;;;15.64;46.39
70434;BME280;57876;47.792;12.960;2023-03-26T04:49:31;96209.53;;;15.64;46.48
70434;BME280;57876;47.792;12.960;2023-03-26T04:51:56;96207.59;;;15.64;46.39
70434;BME280;57876;47.792;12.960;2023-03-26T04:54:21;96203.25;;;15.63;46.17
70434;BME280;57876;47.792;12.960;2023-03-26T04:56:59;96207.59;;;15.64;46.32
70434;BME280;57876;47.792;12.960;2023-03-26T04:59:28;96198.94;;;15.62;45.86
70434;BME280;57876;47.792;12.960;2023-03-26T05:01:53;96198.94;;;15.62;46.05
70434;BME280;57876;47.792;12.960;2023-03-26T05:04:18;96202.47;;;15.63;46.31
70434;BME280;57876;47.792;12.960;2023-03-26T05:06:43;96201.34;;;15.64;46.15
70434;BME280;57876;47.792;12.960;2023-03-26T05:09:07;96201.69;;;15.62;46.22
70434;BME280;57876;47.792;12.960;2023-03-26T05:11:33;96204.41;;;15.62;46.42
70434;BME280;57876;47.792;12.960;2023-03-26T05:13:58;96209.84;;;15.62;46.31
70434;BME280;57876;47.792;12.960;2023-03-26T05:16:23;96211.44;;;15.63;46.12
70434;BME280;57876;47.792;12.960;2023-03-26T05:18:47;96198.16;;;15.62;46.06
70434;BME280;57876;47.792;12.960;2023-03-26T05:21:12;96209.84;;;15.62;46.25
70434;BME280;57876;47.792;12.960;2023-03-26T05:23:36;96204.41;;;15.62;46.42
70434;BME280;57876;47.792;12.960;2023-03-26T05:26:01;96212.59;;;15.62;46.36
70434;BME280;57876;47.792;12.960;2023-03-26T05:28:25;96213.72;;;15.61;46.49
70434;BME280;57876;47.792;12.960;2023-03-26T05:30:51;96217.25;;;15.62;46.40
70434;BME280;57876;47.792;12.960;2023-03-26T05:33:16;96219.97;;;15.62;46.33
70434;BME280;57876;47.792;12.960;2023-03-26T05:35:40;96214.84;;;15.60;46.21
70434;BME280;57876;47.792;12.960;2023-03-26T05:38:06;96219.97;;;15.62;46.33
70434;BME280;57876;47.792;12.960;2023-03-26T05:40:31;96221.06;;;15.61;46.43
70434;BME280;57876;47.792;12.960;2023-03-26T05:42:55;96219.16;;;15.61;46.34
70434;BME280;57876;47.792;12.960;2023-03-26T05:45:20;96219.16;;;15.61;46.47
70434;BME280;57876;47.792;12.960;2023-03-26T05:47:45;96212.91;;;15.61;45.93
70434;BME280;57876;47.792;12.960;2023-03-26T05:50:10;96212.91;;;15.61;46.39
70434;BME280;57876;47.792;12.960;2023-03-26T05:52:35;96219.16;;;15.61;46.25
70434;BME280;57876;47.792;12.960;2023-03-26T05:54:59;96221.91;;;15.61;46.17
70434;BME280;57876;47.792;12.960;2023-03-26T05:57:24;96219.16;;;15.61;46.14
70434;BME280;57876;47.792;12.960;2023-03-26T05:59:51;96213.72;;;15.61;46.51
70434;BME280;57876;47.792;12.960;2023-03-26T06:02:15;96212.91;;;15.61;46.33
70434;BME280;57876;47.792;12.960;2023-03-26T06:04:40;96206.66;;;15.60;46.35
70434;BME280;57876;47.792;12.960;2023-03-26T06:07:06;96211.00;;;15.61;46.29
70434;BME280;57876;47.792;12.960;2023-03-26T06:09:33;96203.94;;;15.60;46.68
70434;BME280;57876;47.792;12.960;2023-03-26T06:11:58;96195.75;;;15.60;46.41
70434;BME280;57876;47.792;12.960;2023-03-26T06:14:22;96200.09;;;15.61;46.34
70434;BME280;57876;47.792;12.960;2023-03-26T06:16:46;96189.50;;;15.60;46.41
70434;BME280;57876;47.792;12.960;2023-03-26T06:19:11;96198.81;;;15.59;46.19
70434;BME280;57876;47.792;12.960;2023-03-26T06:21:35;96193.38;;;15.59;46.12
70434;BME280;57876;47.792;12.960;2023-03-26T06:23:59;96189.50;;;15.60;46.14
70434;BME280;57876;47.792;12.960;2023-03-26T06:26:24;96184.06;;;15.60;46.30
70434;BME280;57876;47.792;12.960;2023-03-26T06:28:48;96186.78;;;15.60;46.13
70434;BME280;57876;47.792;12.960;2023-03-26T06:31:13;96184.84;;;15.60;46.41
70434;BME280;57876;47.792;12.960;2023-03-26T06:33:37;96172.34;;;15.59;46.21
70434;BME280;57876;47.792;12.960;2023-03-26T06:36:02;96170.44;;;15.60;46.26
70434;BME280;57876;47.792;12.960;2023-03-26T06:38:27;96166.13;;;15.59;46.32
70434;BME280;57876;47.792;12.960;2023-03-26T06:40:51;96156.00;;;15.59;46.36
70434;BME280;57876;47.792;12.960;2023-03-26T06:43:15;96155.22;;;15.59;46.28
70434;BME280;57876;47.792;12.960;2023-03-26T06:45:40;96139.66;;;15.59;46.43
70434;BME280;57876;47.792;12.960;2023-03-26T06:48:05;96139.66;;;15.59;46.18
70434;BME280;57876;47.792;12.960;2023-03-26T06:50:29;96134.19;;;15.59;45.98
70434;BME280;57876;47.792;12.960;2023-03-26T06:52:55;96126.03;;;15.59;46.13
70434;BME280;57876;47.792;12.960;2023-03-26T06:55:20;96117.84;;;15.59;46.25
70434;BME280;57876;47.792;12.960;2023-03-26T06:57:50;96116.22;;;15.58;46.03
70434;BME280;57876;47.792;12.960;2023-03-26T07:00:15;96120.56;;;15.59;46.38
70434;BME280;57876;47.792;12.960;2023-03-26T07:02:39;96120.56;;;15.59;46.16
70434;BME280;57876;47.792;12.960;2023-03-26T07:05:04;96115.13;;;15.59;46.29
70434;BME280;57876;47.792;12.960;2023-03-26T07:07:28;96108.53;;;15.60;46.15
70434;BME280;57876;47.792;12.960;2023-03-26T07:09:52;96105.34;;;15.58;46.23
70434;BME280;57876;47.792;12.960;2023-03-26T07:12:17;96101.50;;;15.59;46.09
70434;BME280;57876;47.792;12.960;2023-03-26T07:14:41;96098.78;;;15.59;46.14
70434;BME280;57876;47.792;12.960;2023-03-26T07:17:05;96090.59;;;15.59;46.50
70434;BME280;57876;47.792;12.960;2023-03-26T07:19:30;96084.34;;;15.59;46.16
70434;BME280;57876;47.792;12.960;2023-03-26T07:21:55;96087.88;;;15.59;45.91
70434;BME280;57876;47.792;12.960;2023-03-26T07:24:19;96092.19;;;15.60;46.37
70434;BME280;57876;47.792;12.960;2023-03-26T07:27:05;96086.72;;;15.60;46.03
70434;BME280;57876;47.792;12.960;2023-03-26T07:29:36;96069.91;;;15.58;46.10
70434;BME280;57876;47.792;12.960;2023-03-26T07:35:12;96057.09;;;15.59;46.15
70434;BME280;57876;47.792;12.960;2023-03-26T07:37:51;96068.78;;;15.59;46.22
70434;BME280;57876;47.792;12.960;2023-03-26T07:43:27;96053.22;;;15.60;46.10
70434;BME280;57876;47.792;12.960;2023-03-26T07:45:55;96040.38;;;15.60;46.39
70434;BME280;57876;47.792;12.960;2023-03-26T07:48:22;96022.44;;;15.59;46.05
70434;BME280;57876;47.792;12.960;2023-03-26T07:50:50;96015.06;;;15.60;46.42
70434;BME280;57876;47.792;12.960;2023-03-26T07:53:15;96014.28;;;15.59;46.22
70434;BME280;57876;47.792;12.960;2023-03-26T07:55:52;96001.44;;;15.60;46.39
70434;BME280;57876;47.792;12.960;2023-03-26T08:04:37;95965.22;;;15.59;46.35
70434;BME280;57876;47.792;12.960;2023-03-26T08:12:37;95952.84;;;15.62;46.48
70434;BME280;57876;47.792;12.960;2023-03-26T08:20:39;95915.47;;;15.62;46.01
70434;BME280;57876;47.792;12.960;2023-03-26T08:28:34;95882.75;;;15.62;46.57
70434;BME280;57876;47.792;12.960;2023-03-26T08:31:02;95884.34;;;15.63;46.39
70434;BME280;57876;47.792;12.960;2023-03-26T08:33:27;95883.91;;;15.61;46.04
70434;BME280;57876;47.792;12.960;2023-03-26T08:35:52;95869.13;;;15.62;46.43
70434;BME280;57876;47.792;12.960;2023-03-26T08:38:18;95859.38;;;15.61;46.23
70434;BME280;57876;47.792;12.960;2023-03-26T08:49:08;95841.88;;;15.62;46.60
70434;BME280;57876;47.792;12.960;2023-03-26T08:51:57;95841.88;;;15.62;46.39
70434;BME280;57876;47.792;12.960;2023-03-26T08:54:42;95830.97;;;15.62;46.33
70434;BME280;57876;47.792;12.960;2023-03-26T09:03:01;95801.00;;;15.62;46.14
70434;BME280;57876;47.792;12.960;2023-03-26T09:11:45;95788.50;;;15.61;46.51
70434;BME280;57876;47.792;12.960;2023-03-26T09:15:26;95783.06;;;15.61;46.37
70434;BME280;57876;47.792;12.960;2023-03-26T09:32:30;95761.25;;;15.61;46.48
70434;BME280;57876;47.792;12.960;2023-03-26T09:37:56;95739.44;;;15.61;46.28
70434;BME280;57876;47.792;12.960;2023-03-26T09:40:19;95723.44;;;15.60;46.17
70434;BME280;57876;47.792;12.960;2023-03-26T09:42:52;95723.09;;;15.61;46.35
70434;BME280;57876;47.792;12.960;2023-03-26T09:58:58;95716.50;;;15.62;46.33
70434;BME280;57876;47.792;12.960;2023-03-26T10:01:46;95708.66;;;15.61;46.22
70434;BME280;57876;47.792;12.960;2023-03-26T10:12:32;95697.41;;;15.62;46.36
70434;BME280;57876;47.792;12.960;2023-03-26T10:18:11;95713.78;;;15.62;46.39
70434;BME280;57876;47.792;12.960;2023-03-26T10:25:41;95714.56;;;15.63;46.63
70434;BME280;57876;47.792;12.960;2023-03-26T10:28:23;95720.81;;;15.63;46.10
70434;BME280;57876;47.792;12.960;2023-03-26T10:30:55;95723.09;;;15.61;46.10
70434;BME280;57876;47.792;12.960;2023-03-26T10:33:51;95718.06;;;15.63;46.24
70434;BME280;57876;47.792;12.960;2023-03-26T10:36:34;95710.25;;;15.62;45.96
70434;BME280;57876;47.792;12.960;2023-03-26T10:41:57;95709.91;;;15.63;46.09
70434;BME280;57876;47.792;12.960;2023-03-26T10:52:15;95709.13;;;15.63;46.30
70434;BME280;57876;47.792;12.960;2023-03-26T10:57:46;95764.78;;;15.62;46.22
70434;BME280;57876;47.792;12.960;2023-03-26T11:00:16;95779.19;;;15.62;46.40
70434;BME280;57876;47.792;12.960;2023-03-26T11:08:55;95804.03;;;15.61;46.05
70434;BME280;57876;47.792;12.960;2023-03-26T11:14:14;95803.72;;;15.62;46.32
70434;BME280;57876;47.792;12.960;2023-03-26T11:16:48;95795.53;;;15.62;46.30
70434;BME280;57876;47.792;12.960;2023-03-26T11:22:00;95779.19;;;15.62;46.30
70434;BME280;57876;47.792;12.960;2023-03-26T11:32:07;95762.38;;;15.60;46.09
70434;BME280;57876;47.792;12.960;2023-03-26T11:34:37;95762.38;;;15.60;46.26
70434;BME280;57876;47.792;12.960;2023-03-26T11:37:11;95758.06;;;15.59;46.15
70434;BME280;57876;47.792;12.960;2023-03-26T11:39:56;95766.72;;;15.61;46.32
70434;BME280;57876;47.792;12.960;2023-03-26T11:42:23;95761.25;;;15.61;46.55
70434;BME280;57876;47.792;12.960;2023-03-26T11:44:55;95755.34;;;15.59;46.60
70434;BME280;57876;47.792;12.960;2023-03-26T11:47:25;95763.16;;;15.61;46.71
70434;BME280;57876;47.792;12.960;2023-03-26T11:49:55;95758.06;;;15.59;46.59
70434;BME280;57876;47.792;12.960;2023-03-26T11:52:22;95762.03;;;15.62;46.33
70434;BME280;57876;47.792;12.960;2023-03-26T11:54:46;95746.03;;;15.60;46.23
70434;BME280;57876;47.792;12.960;2023-03-26T11:57:19;95758.06;;;15.59;45.99
70434;BME280;57876;47.792;12.960;2023-03-26T11:59:50;95747.97;;;15.60;46.47
70434;BME280;57876;47.792;12.960;2023-03-26T12:02:27;95724.22;;;15.60;46.51
70434;BME280;57876;47.792;12.960;2023-03-26T12:05:16;95718.44;;;15.62;46.35
70434;BME280;57876;47.792;12.960;2023-03-26T12:10:32;95690.41;;;15.61;46.42
70434;BME280;57876;47.792;12.960;2023-03-26T12:13:00;95670.50;;;15.61;46.47
70434;BME280;57876;47.792;12.960;2023-03-26T12:15:26;95669.72;;;15.60;46.26
70434;BME280;57876;47.792;12.960;2023-03-26T12:17:56;95666.97;;;15.60;46.60
70434;BME280;57876;47.792;12.960;2023-03-26T12:20:31;95662.31;;;15.61;46.33
70434;BME280;57876;47.792;12.960;2023-03-26T12:22:58;95666.97;;;15.60;46.51
70434;BME280;57876;47.792;12.960;2023-03-26T12:25:34;95674.84;;;15.62;46.60
70434;BME280;57876;47.792;12.960;2023-03-26T12:30:37;95663.94;;;15.62;46.61
70434;BME280;57876;47.792;12.960;2023-03-26T12:33:13;95653.81;;;15.62;46.20
70434;BME280;57876;47.792;12.960;2023-03-26T12:35:39;95666.66;;;15.62;46.49
70434;BME280;57876;47.792;12.960;2023-03-26T12:40:37;95662.00;;;15.62;46.36
70434;BME280;57876;47.792;12.960;2023-03-26T12:43:05;95654.97;;;15.61;46.41
70434;BME280;57876;47.792;12.960;2023-03-26T12:45:43;95653.03;;;15.62;46.55
70434;BME280;57876;47.792;12.960;2023-03-26T12:48:13;95642.91;;;15.62;46.42
70434;BME280;57876;47.792;12.960;2023-03-26T13:04:54;95640.19;;;15.62;46.58
70434;BME280;57876;47.792;12.960;2023-03-26T13:07:34;95639.72;;;15.60;46.30
70434;BME280;57876;47.792;12.960;2023-03-26T13:15:46;95638.94;;;15.60;46.40
70434;BME280;57876;47.792;12.960;2023-03-26T13:19:25;95640.53;;;15.61;46.65
70434;BME280;57876;47.792;12.960;2023-03-26T13:27:07;95629.63;;;15.61;46.37
70434;BME280;57876;47.792;12.960;2023-03-26T13:40:34;95661.53;;;15.60;46.46
70434;BME280;57876;47.792;12.960;2023-03-26T13:46:14;95646.66;;;15.58;46.22
70434;BME280;57876;47.792;12.960;2023-03-26T13:48:56;95640.88;;;15.59;46.39
70434;BME280;57876;47.792;12.960;2023-03-26T13:51:49;95627.25;;;15.59;46.59
70434;BME280;57876;47.792;12.960;2023-03-26T13:54:28;95640.88;;;15.59;46.36
70434;BME280;57876;47.792;12.960;2023-03-26T13:59:40;95638.16;;;15.59;46.95
70434;BME280;57876;47.792;12.960;2023-03-26T14:04:46;95641.66;;;15.60;46.34
70434;BME280;57876;47.792;12.960;2023-03-26T14:07:21;95657.22;;;15.59;46.69
70434;BME280;57876;47.792;12.960;2023-03-26T14:15:10;95638.16;;;15.59;46.24
70434;BME280;57876;47.792;12.960;2023-03-26T14:26:23;95638.16;;;15.59;46.35
70434;BME280;57876;47.792;12.960;2023-03-26T14:35:37;95631.09;;;15.58;46.67
70434;BME280;57876;47.792;12.960;2023-03-26T14:41:12;95605.78;;;15.58;46.63
70434;BME280;57876;47.792;12.960;2023-03-26T14:49:24;95590.59;;;15.57;46.49
70434;BME280;57876;47.792;12.960;2023-03-26T14:52:12;95575.38;;;15.56;46.63
70434;BME280;57876;47.792;12.960;2023-03-26T14:54:43;95569.13;;;15.55;46.51
70434;BME280;57876;47.792;12.960;2023-03-26T15:20:11;95594.72;;;15.79;47.05
70434;BME280;57876;47.792;12.960;2023-03-26T15:31:50;95596.00;;;15.97;47.26
70434;BME280;57876;47.792;12.960;2023-03-26T15:43:16;95572.22;;;15.82;46.86
70434;BME280;57876;47.792;12.960;2023-03-26T15:46:31;95564.03;;;15.82;46.97
70434;BME280;57876;47.792;12.960;2023-03-26T15:49:08;95579.16;;;15.79;47.42
70434;BME280;57876;47.792;12.960;2023-03-26T15:51:53;95559.19;;;15.75;47.43
70434;BME280;57876;47.792;12.960;2023-03-26T15:54:26;95562.25;;;15.74;46.93
70434;BME280;57876;47.792;12.960;2023-03-26T15:59:57;95554.06;;;15.74;47.36
70434;BME280;57876;47.792;12.960;2023-03-26T16:05:53;95567.94;;;15.69;46.92
70434;BME280;57876;47.792;12.960;2023-03-26T16:17:18;95561.69;;;15.68;47.05
70434;BME280;57876;47.792;12.960;2023-03-26T16:19:48;95552.72;;;15.68;47.23
70434;BME280;57876;47.792;12.960;2023-03-26T16:22:40;95553.44;;;15.64;47.30
70434;BME280;57876;47.792;12.960;2023-03-26T16:27:44;95562.72;;;15.63;47.32
70434;BME280;57876;47.792;12.960;2023-03-26T16:30:24;95560.44;;;15.66;47.30
70434;BME280;57876;47.792;12.960;2023-03-26T16:32:54;95560.44;;;15.66;47.08
70434;BME280;57876;47.792;12.960;2023-03-26T16:35:36;95550.25;;;15.62;47.08
70434;BME280;57876;47.792;12.960;2023-03-26T16:38:15;95544.78;;;15.62;46.93
70434;BME280;57876;47.792;12.960;2023-03-26T16:40:58;95540.91;;;15.63;47.25
70434;BME280;57876;47.792;12.960;2023-03-26T16:52:55;95503.78;;;15.71;47.24
70434;BME280;57876;47.792;12.960;2023-03-26T16:55:24;95506.25;;;15.76;47.24
70434;BME280;57876;47.792;12.960;2023-03-26T16:58:33;95508.72;;;15.81;47.08
70434;BME280;57876;47.792;12.960;2023-03-26T17:01:10;95500.66;;;15.85;47.26
70434;BME280;57876;47.792;12.960;2023-03-26T17:03:59;95501.44;;;15.85;47.15
70434;BME280;57876;47.792;12.960;2023-03-26T17:09:05;95518.78;;;15.93;47.12
70434;BME280;57876;47.792;12.960;2023-03-26T17:11:52;95531.59;;;15.93;47.08
70434;BME280;57876;47.792;12.960;2023-03-26T17:25:41;95516.41;;;16.07;47.09
70434;BME280;57876;47.792;12.960;2023-03-26T17:35:50;95492.75;;;16.12;47.07
70434;BME280;57876;47.792;12.960;2023-03-26T17:40:59;95499.50;;;16.18;47.39
70434;BME280;57876;47.792;12.960;2023-03-26T17:43:42;95491.31;;;16.18;47.80
70434;BME280;57876;47.792;12.960;2023-03-26T17:48:46;95505.03;;;16.21;47.38
70434;BME280;57876;47.792;12.960;2023-03-26T17:54:05;95500.38;;;16.22;47.85
70434;BME280;57876;47.792;12.960;2023-03-26T17:56:30;95501.97;;;16.23;47.46
70434;BME280;57876;47.792;12.960;2023-03-26T17:58:59;95515.63;;;16.23;47.47
70434;BME280;57876;47.792;12.960;2023-03-26T18:01:38;95527.66;;;16.22;47.64
70434;BME280;57876;47.792;12.960;2023-03-26T18:04:29;95527.31;;;16.23;47.73
70434;BME280;57876;47.792;12.960;2023-03-26T18:10:05;95536.28;;;16.24;47.55
70434;BME280;57876;47.792;12.960;2023-03-26T18:18:13;95522.03;;;16.15;47.67
70434;BME280;57876;47.792;12.960;2023-03-26T18:20:41;95517.28;;;16.12;47.57
70434;BME280;57876;47.792;12.960;2023-03-26T18:23:21;95514.91;;;16.10;47.85
70434;BME280;57876;47.792;12.960;2023-03-26T18:25:54;95522.63;;;16.08;47.54
70434;BME280;57876;47.792;12.960;2023-03-26T18:28:29;95518.22;;;16.03;47.88